Time;durP1;ratioP1;P1;durP2;ratioP2;P2;SDS_P1;SDS_P2;PMS_P1;PMS_P2;Temp;Humidity;BMP_temperature;BMP_pressure;BME280_temperature;BME280_humidity;BME280_pressure;Samples;Min_cycle;Max_cycle;Signal;HPM_P1;HPM_P2
2023/07/30 00:07:17;;;;;;;0.73;0.38;;;;;;;;;;20912037;28;20229;-77
2023/07/30 00:17:19;;;;;;;0.30;0.30;;;;;;;;;;20893194;28;20280;-77
2023/07/30 00:27:20;;;;;;;1.15;0.40;;;;;;;;;;20911159;28;20302;-81
2023/07/30 00:37:22;;;;;;;0.68;0.40;;;;;;;;;;20910945;28;20241;-78
2023/07/30 00:47:24;;;;;;;0.47;0.30;;;21.80;99.90;;;;;;20889967;28;20308;-80
2023/07/30 00:57:27;;;;;;;0.30;0.28;;;;;;;;;;20887970;28;20731;-79
2023/07/30 01:07:29;;;;;;;0.20;0.20;;;;;;;;;;20906003;28;20226;-78
2023/07/30 01:17:31;;;;;;;0.45;0.30;;;22.10;99.90;;;;;;20886486;28;20236;-80
2023/07/30 01:27:37;;;;;;;0.50;0.50;;;;;;;;;;20905747;28;20264;-80
2023/07/30 01:37:39;;;;;;;0.30;0.30;;;;;;;;;;20872377;28;20650;-80
2023/07/30 01:47:41;;;;;;;0.43;0.30;;;;;;;;;;20871420;28;20240;-79
2023/07/30 01:57:43;;;;;;;0.73;0.50;;;;;;;;;;20891163;28;20228;-77
2023/07/30 02:07:44;;;;;;;1.15;0.40;;;;;;;;;;20890889;28;20298;-78
2023/07/30 02:17:46;;;;;;;0.30;0.30;;;;;;;;;;20895960;28;20239;-81
2023/07/30 02:27:48;;;;;;;0.57;0.40;;;;;;;;;;20918169;28;20235;-78
2023/07/30 02:37:49;;;;;;;0.40;0.30;;;;;;;;;;20902088;28;20243;-77
2023/07/30 02:47:51;;;;;;;0.82;0.52;;;;;;;;;;20918969;28;20370;-79
2023/07/30 02:57:53;;;;;;;2.08;0.52;;;;;;;;;;20906429;28;20239;-78
2023/07/30 03:07:55;;;;;;;2.78;0.68;;;;;;;;;;20899957;28;20262;-78
2023/07/30 03:17:56;;;;;;;1.00;0.50;;;;;;;;;;20915488;28;20235;-79
2023/07/30 03:27:58;;;;;;;2.72;0.52;;;;;;;;;;20898767;28;20213;-79
2023/07/30 03:38:00;;;;;;;0.63;0.47;;;;;;;;;;20896571;28;20251;-78
2023/07/30 03:48:01;;;;;;;0.57;0.40;;;;;;;;;;20913736;28;20249;-79
2023/07/30 03:58:03;;;;;;;0.95;0.50;;;;;;;;;;20879762;28;20240;-80
2023/07/30 04:08:05;;;;;;;0.75;0.50;;;;;;;;;;20899820;28;20247;-81
2023/07/30 04:18:07;;;;;;;1.50;0.40;;;;;;;;;;20879871;28;20293;-79
2023/07/30 04:28:08;;;;;;;0.93;0.63;;;;;;;;;;20890569;28;20236;-79
2023/07/30 04:38:11;;;;;;;0.40;0.40;;;;;;;;;;20896625;28;20301;-80
2023/07/30 04:58:27;;;;;;;0.85;0.50;;;;;;;;;;21172665;27;20573;-69
2023/07/30 05:08:30;;;;;;;0.70;0.50;;;;;;;;;;21115060;28;20234;-69
2023/07/30 05:18:32;;;;;;;1.73;0.80;;;;;;;;;;21121802;28;20225;-69
2023/07/30 05:28:34;;;;;;;1.00;0.50;;;;;;;;;;21110560;28;20291;-69
2023/07/30 05:38:35;;;;;;;1.10;0.50;;;;;;;;;;21078927;28;20214;-69
2023/07/30 05:48:37;;;;;;;1.02;0.60;;;;;;;;;;21112922;28;20229;-69
2023/07/30 05:58:39;;;;;;;0.70;0.60;;;;;;;;;;21118687;28;20586;-69
2023/07/30 06:08:41;;;;;;;2.53;0.70;;;;;;;;;;21040526;28;20745;-70
2023/07/30 06:18:43;;;;;;;0.85;0.70;;;;;;;;;;21015309;28;20276;-71
2023/07/30 06:28:45;;;;;;;0.57;0.45;;;;;;;;;;21043121;28;20276;-69
2023/07/30 06:38:48;;;;;;;0.95;0.52;;;;;;;;;;21091523;27;20282;-70
2023/07/30 06:48:49;;;;;;;0.60;0.57;;;;;;;;;;21195873;27;20321;-69
2023/07/30 06:58:51;;;;;;;0.70;0.60;;;;;;;;;;21193133;27;20217;-69
2023/07/30 07:08:53;;;;;;;0.70;0.50;;;;;;;;;;21182414;27;20212;-69
2023/07/30 07:18:55;;;;;;;1.10;0.77;;;;;;;;;;21212681;27;20543;-70
2023/07/30 07:28:58;;;;;;;0.83;0.63;;;;;;;;;;21217559;27;20751;-70
2023/07/30 07:39:00;;;;;;;0.73;0.60;;;;;;;;;;21211915;27;20287;-71
2023/07/30 07:49:02;;;;;;;1.85;0.68;;;;;;;;;;21219478;27;20228;-69
2023/07/30 07:59:04;;;;;;;0.63;0.50;;;;;;;;;;21231856;27;20774;-71
2023/07/30 08:09:06;;;;;;;1.92;0.40;;;;;;;;;;21189732;27;20295;-70
2023/07/30 08:19:08;;;;;;;0.65;0.50;;;;;;;;;;21184947;27;20225;-69
2023/07/30 08:29:13;;;;;;;1.88;0.57;;;;;;;;;;21179755;27;20221;-70
2023/07/30 08:39:15;;;;;;;0.52;0.47;;;;;;;;;;21180962;27;20745;-70
2023/07/30 08:49:17;;;;;;;0.98;0.68;;;;;;;;;;21212425;27;20231;-70
2023/07/30 08:59:20;;;;;;;1.15;0.60;;;;;;;;;;21202340;27;20229;-70
2023/07/30 09:09:22;;;;;;;1.00;0.65;;;;;;;;;;21174889;27;20220;-70
2023/07/30 09:19:24;;;;;;;1.15;0.50;;;;;;;;;;21181305;28;20695;-71
2023/07/30 09:29:26;;;;;;;1.00;0.45;;;;;;;;;;21182601;28;20214;-71
2023/07/30 09:39:28;;;;;;;0.80;0.43;;;;;;;;;;21188479;27;20219;-71
2023/07/30 09:49:31;;;;;;;1.15;0.50;;;;;;;;;;21196159;27;20249;-70
2023/07/30 09:59:33;;;;;;;0.70;0.50;;;;;;;;;;21196755;27;20218;-70
2023/07/30 10:09:43;;;;;;;1.25;0.47;;;;;;;;;;20838413;23;20287;-68
2023/07/30 10:19:49;;;;;;;1.17;0.50;;;;;;;;;;20877873;28;20300;-68
2023/07/30 10:30:08;;;;;;;0.93;0.40;;;;;;;;;;20857497;28;20214;-68
2023/07/30 10:40:17;;;;;;;0.57;0.38;;;23.60;99.90;;;;;;20845448;28;20231;-68
2023/07/30 10:50:22;;;;;;;0.38;0.30;;;23.50;99.90;;;;;;20858165;28;20212;-69
2023/07/30 11:00:24;;;;;;;0.38;0.35;;;;;;;;;;20789067;28;20281;-69
2023/07/30 11:10:26;;;;;;;1.38;0.50;;;;;;;;;;20851460;28;20281;-69
2023/07/30 11:20:28;;;;;;;0.88;0.40;;;;;;;;;;20841449;28;20296;-69
2023/07/30 11:30:30;;;;;;;0.85;0.47;;;;;;;;;;20770479;28;20223;-69
2023/07/30 11:40:32;;;;;;;1.98;0.70;;;;;;;;;;20878355;28;20224;-69
2023/07/30 11:50:52;;;;;;;0.82;0.45;;;;;;;;;;20806123;28;20269;-69
2023/07/30 12:00:54;;;;;;;1.80;0.40;;;;;;;;;;20783473;28;20236;-68
2023/07/30 12:10:56;;;;;;;0.65;0.40;;;;;;;;;;20800465;28;20227;-67
2023/07/30 12:20:59;;;;;;;1.52;0.40;;;;;;;;;;20880947;28;20734;-68
2023/07/30 12:31:01;;;;;;;1.17;0.40;;;;;;;;;;20848461;28;20531;-68
2023/07/30 12:41:03;;;;;;;0.70;0.45;;;;;;;;;;20864034;28;20652;-68
2023/07/30 12:51:04;;;;;;;0.57;0.43;;;;;;;;;;20843743;28;20222;-68
2023/07/30 13:01:07;;;;;;;1.30;0.47;;;;;;;;;;20818827;28;20800;-69
2023/07/30 13:11:09;;;;;;;3.17;0.70;;;;;;;;;;20791732;28;20245;-67
2023/07/30 13:21:11;;;;;;;1.55;0.55;;;;;;;;;;20796268;28;20241;-68
2023/07/30 13:31:13;;;;;;;1.05;0.50;;;;;;;;;;20893552;28;20259;-68
2023/07/30 13:41:15;;;;;;;0.73;0.45;;;;;;;;;;20861283;28;20251;-67
2023/07/30 13:51:17;;;;;;;1.73;0.60;;;;;;;;;;20855440;28;20213;-67
2023/07/30 14:01:19;;;;;;;1.85;0.60;;;;;;;;;;20815940;28;20243;-67
2023/07/30 14:11:21;;;;;;;0.73;0.40;;;;;;;;;;20809147;28;20221;-67
2023/07/30 14:21:23;;;;;;;1.00;0.40;;;;;;;;;;20791418;28;20222;-66
2023/07/30 14:31:24;;;;;;;0.85;0.50;;;;;;;;;;20849436;28;20228;-67
2023/07/30 14:41:26;;;;;;;0.50;0.38;;;;;;;;;;20889792;28;20323;-68
2023/07/30 14:51:28;;;;;;;0.40;0.40;;;;;;;;;;20833006;28;20288;-67
2023/07/30 15:01:30;;;;;;;1.58;0.73;;;;;;;;;;20854935;28;20224;-67
2023/07/30 15:11:32;;;;;;;1.90;0.60;;;;;;;;;;20854383;28;20217;-68
2023/07/30 15:21:36;;;;;;;0.60;0.30;;;;;;;;;;20869602;28;20596;-69
2023/07/30 15:31:38;;;;;;;0.98;0.35;;;;;;;;;;20869036;28;20233;-69
2023/07/30 15:41:40;;;;;;;0.82;0.43;;;;;;;;;;20834837;28;20292;-69
2023/07/30 15:51:42;;;;;;;1.40;0.50;;;;;;;;;;20842418;28;20230;-68
2023/07/30 16:01:44;;;;;;;0.98;0.35;;;;;;;;;;20822297;23;20241;-72
2023/07/30 16:11:45;;;;;;;1.67;0.40;;;;;;;;;;20982678;28;20223;-71
2023/07/30 16:21:49;;;;;;;0.82;0.40;;;;;;;;;;20966006;28;20255;-71
2023/07/30 16:31:51;;;;;;;1.52;0.63;;;;;;;;;;20926079;28;20296;-71
2023/07/30 16:41:53;;;;;;;1.30;0.50;;;;;;;;;;20913114;28;20228;-71
2023/07/30 16:51:55;;;;;;;0.70;0.40;;;;;;;;;;20984174;28;20212;-70
2023/07/30 17:01:57;;;;;;;1.13;0.32;;;;;;;;;;20978061;28;20262;-72
2023/07/30 17:11:59;;;;;;;0.60;0.40;;;;;;;;;;20974320;28;20284;-71
2023/07/30 17:22:00;;;;;;;1.02;0.40;;;;;;;;;;20966949;28;20229;-70
2023/07/30 17:32:02;;;;;;;1.02;0.60;;;;;;;;;;20876561;28;20216;-71
2023/07/30 17:42:04;;;;;;;3.75;0.55;;;;;;;;;;20892834;28;20726;-73
2023/07/30 17:52:06;;;;;;;0.93;0.40;;;24.20;99.90;;;;;;20947403;28;20208;-73
2023/07/30 18:02:08;;;;;;;1.05;0.50;;;;;;;;;;20983978;28;20218;-73
2023/07/30 18:12:10;;;;;;;0.90;0.47;;;;;;;;;;20932158;28;20240;-71
2023/07/30 18:22:12;;;;;;;1.33;0.50;;;;;;;;;;20951315;28;20266;-72
2023/07/30 18:32:14;;;;;;;1.25;0.40;;;;;;;;;;20987856;28;20758;-70
2023/07/30 18:42:15;;;;;;;2.85;0.50;;;;;;;;;;20987885;28;20563;-70
2023/07/30 18:52:18;;;;;;;1.15;0.40;;;;;;;;;;20996339;28;20417;-71
2023/07/30 19:02:19;;;;;;;1.17;0.50;;;;;;;;;;20962823;28;20719;-71
2023/07/30 19:12:21;;;;;;;1.20;0.60;;;;;;;;;;20901868;28;20238;-71
2023/07/30 19:22:23;;;;;;;0.50;0.40;;;;;;;;;;20901585;28;20235;-70
2023/07/30 19:32:24;;;;;;;1.75;0.60;;;;;;;;;;20975472;28;20223;-73
2023/07/30 19:42:26;;;;;;;2.30;0.57;;;;;;;;;;20930919;28;20253;-70
2023/07/30 19:52:30;;;;;;;1.70;0.47;;;;;;;;;;20952947;28;20631;-71
2023/07/30 20:02:32;;;;;;;1.67;0.47;;;;;;;;;;20986350;28;20221;-71
2023/07/30 20:12:34;;;;;;;2.60;0.50;;;;;;;;;;20888390;28;20218;-71
2023/07/30 20:22:35;;;;;;;2.33;0.52;;;;;;;;;;20969593;28;20263;-71
2023/07/30 20:32:38;;;;;;;1.02;0.50;;;;;;;;;;20980141;28;20268;-71
2023/07/30 20:42:40;;;;;;;2.08;0.52;;;;;;;;;;20962604;28;20308;-70
2023/07/30 20:52:43;;;;;;;1.02;0.57;;;;;;;;;;20990481;28;20213;-71
2023/07/30 21:02:45;;;;;;;1.33;0.52;;;;;;;;;;20979133;28;20218;-71
2023/07/30 21:12:46;;;;;;;0.45;0.30;;;;;;;;;;20944648;28;20222;-70
2023/07/30 21:22:48;;;;;;;2.88;0.57;;;;;;;;;;20979054;28;20284;-70
2023/07/30 21:32:50;;;;;;;1.75;0.68;;;;;;;;;;20981452;28;20407;-70
2023/07/30 21:42:51;;;;;;;0.73;0.40;;;;;;;;;;20977213;28;20294;-70
2023/07/30 21:52:53;;;;;;;1.33;0.50;;;;;;;;;;20972642;28;20245;-70
2023/07/30 22:02:57;;;;;;;1.85;0.60;;;;;;;;;;20944502;28;20287;-70
2023/07/30 22:12:59;;;;;;;0.60;0.35;;;;;;;;;;20972086;22;20229;-70
2023/07/30 22:23:01;;;;;;;0.60;0.40;;;22.00;99.90;;;;;;20838838;28;20254;-71
2023/07/30 22:33:03;;;;;;;0.90;0.50;;;;;;;;;;20816259;28;20281;-71
2023/07/30 22:43:04;;;;;;;1.13;0.63;;;;;;;;;;20858483;28;20250;-71
2023/07/30 22:53:06;;;;;;;1.55;0.47;;;;;;;;;;20885822;28;20218;-70
2023/07/30 23:03:08;;;;;;;0.55;0.45;;;;;;;;;;20883695;28;20248;-70
2023/07/30 23:13:10;;;;;;;1.75;0.50;;;;;;;;;;20872413;28;20316;-70
2023/07/30 23:23:12;;;;;;;0.52;0.43;;;;;;;;;;20855443;28;20212;-70
2023/07/30 23:33:14;;;;;;;1.47;0.40;;;;;;;;;;20838354;28;20272;-70
2023/07/30 23:43:15;;;;;;;1.83;1.10;;;;;;;;;;20825309;28;21115;-70
2023/07/30 23:53:17;;;;;;;1.42;0.50;;;;;;;;;;20846475;28;20696;-71
